Attica, NY (14011)

8:44 AM EDT on September 22, 2014 (GMT -0400)
South of village | Change Station
CLOSE
Current Station
Personal Weather Station
Location: Attica, NY
Elevation: 1007 ft
Nearby Weather Stations

Elev 1007 ft 42.84 °N, 78.29 °W | Updated 4 seconds ago

Overcast
Overcast
43.3 °F
Feels Like 40 °F
N
5.3
Wind Variable Wind from NNW
Gusts 5.3 mph

Today
High -- | Low -- °F
--% Chance of Precip.
Yesterday
High -- | Low -- °F
Precip. -- in
7:00 AM 7:10 PM
Waning Crescent, 3% visible
Pressure 29.99 in
Visibility 10.0 miles
Clouds Few 2300 ft
Mostly Cloudy 3400 ft
Windchill 40 °F
Dew Point 37 °F
Humidity 78%
Rainfall 0.09 in
Snow Depth Not available.
UV 0 out of 12
Pollen 3.30 out of 12
PM2.5 Good
Flu Activity Not available.
METAR KBUF 221154Z 30011KT 10SM FEW023 BKN034 11/05 A2998 RMK AO2 SLP153 60000 70002 T01060050 10106 20100 51030

More Conditions Fewer Conditions

Pressure 29.99 in
Visibility 10.0 miles
Clouds Few 2300 ft
Mostly Cloudy 3400 ft
Windchill 40 °F
Dew Point 37 °F
Humidity 78%
Rainfall 0.09 in
Snow Depth Not available.
UV 0 out of 12
Pollen 3.30 out of 12
PM2.5 Good
Flu Activity Not available.
METAR KBUF 221154Z 30011KT 10SM FEW023 BKN034 11/05 A2998 RMK AO2 SLP153 60000 70002 T01060050 10106 20100 51030

More Conditions Fewer Conditions

10-Day Weather Forecast

Almanac

Astronomy

Sep. 22, 2014 Rise Set
Actual Time 7:00 AM EDT 7:10 PM EDT
Civil Twilight 6:32 AM EDT 7:38 PM EDT
Nautical Twilight 5:58 AM EDT 8:11 PM EDT
Astronomical Twilight 5:25 AM EDT 8:45 PM EDT
Moon 5:25 AM EDT 6:17 PM EDT
Length of Visible Light 13h 06m
Length of Day
12h 10m
Tomorrow will be 2m 52s shorter.
Waning Crescent, 3% of the Moon is Illuminated
Today
Waning Crescent
Sep 24
New
Oct 1
First Quarter
Oct 8
Full
Oct 15
Last Quarter

Today's Extremes

State Highs State Lows

Community

WunderPhotos

Upload Photos

1,755,419 photos uploaded!

Nearby

Air Quality

  Air Quality AQ Index Pollutant
Yesterday Good
OZONE
Yesterday Good
PM2.5
Current Good
PM2.5
Monday Good
OZONE
Monday Good
PM2.5

Snow Depth

Station Depth Elevation
No new snow has been reported.

Earthquake Activity

City Distance Mag. Time & Date
No recent earthquake activity has been reported nearby.
Minimum magnitude displayed is 2.5.

Coastal Water Temperatures

Place Temperature
Buffalo, NY 66.0 °F

Nearby Weather Stations